Time;durP1;ratioP1;P1;durP2;ratioP2;P2;SDS_P1;SDS_P2;PMS_P1;PMS_P2;Temp;Humidity;BMP_temperature;BMP_pressure;BME280_temperature;BME280_humidity;BME280_pressure;Samples;Min_cycle;Max_cycle;Signal;HPM_P1;HPM_P2
2023/02/03 00:00:23;;;;;;;6.43;2.35;;;18.10;37.20;;;;;;6156183;23;20136;-80
2023/02/03 00:02:48;;;;;;;7.75;1.98;;;18.10;37.30;;;;;;6156173;23;20135;-80
2023/02/03 00:05:14;;;;;;;9.30;2.40;;;18.10;37.30;;;;;;6130156;23;20151;-80
2023/02/03 00:07:40;;;;;;;6.25;2.10;;;18.10;37.40;;;;;;6156392;23;20463;-81
2023/02/03 00:10:06;;;;;;;6.38;2.35;;;18.10;37.40;;;;;;6156172;23;20143;-80
2023/02/03 00:12:31;;;;;;;8.45;2.30;;;18.10;37.50;;;;;;6156580;23;20497;-81
2023/02/03 00:14:57;;;;;;;6.30;2.08;;;18.00;37.40;;;;;;6130128;23;20583;-80
2023/02/03 00:17:22;;;;;;;10.98;1.92;;;18.10;37.50;;;;;;6155890;23;20191;-81
2023/02/03 00:19:48;;;;;;;5.57;2.05;;;18.10;37.50;;;;;;6156358;23;20578;-80
2023/02/03 00:22:14;;;;;;;6.60;1.88;;;18.00;37.50;;;;;;6156340;23;20649;-80
2023/02/03 00:24:40;;;;;;;12.13;2.70;;;18.00;37.50;;;;;;6130038;23;20135;-81
2023/02/03 00:27:05;;;;;;;7.43;2.10;;;18.00;37.50;;;;;;6156025;23;20131;-80
2023/02/03 00:29:31;;;;;;;8.45;2.30;;;18.00;37.60;;;;;;6105662;23;20564;-81
2023/02/03 00:31:57;;;;;;;7.03;2.20;;;18.00;37.70;;;;;;6129876;23;20136;-80
2023/02/03 00:34:27;;;;;;;8.55;2.38;;;18.00;37.60;;;;;;6156334;23;20135;-80
2023/02/03 00:36:52;;;;;;;11.68;2.45;;;18.00;37.70;;;;;;6105442;23;20249;-81
2023/02/03 00:39:18;;;;;;;6.13;2.20;;;18.00;37.70;;;;;;6130314;23;20191;-80
2023/02/03 00:41:44;;;;;;;7.45;2.13;;;18.00;37.90;;;;;;6155997;23;20209;-81
2023/02/03 00:44:09;;;;;;;5.50;1.83;;;18.00;37.90;;;;;;6129823;23;20155;-80
2023/02/03 00:46:35;;;;;;;4.55;1.98;;;18.00;38.00;;;;;;6130058;23;20459;-80
2023/02/03 00:49:02;;;;;;;8.05;2.00;;;18.00;38.00;;;;;;6129869;23;20203;-80
2023/02/03 00:51:28;;;;;;;5.55;1.90;;;17.90;38.00;;;;;;6129680;23;20139;-80
2023/02/03 00:53:53;;;;;;;10.20;1.80;;;18.00;38.00;;;;;;6155889;23;20218;-80
2023/02/03 00:56:19;;;;;;;6.95;2.00;;;17.90;38.00;;;;;;6158028;23;20474;-80
2023/02/03 00:58:45;;;;;;;5.32;1.95;;;17.90;38.10;;;;;;6131799;23;20700;-80
2023/02/03 01:01:11;;;;;;;7.47;2.00;;;17.90;38.10;;;;;;6157966;23;20132;-81
2023/02/03 01:03:36;;;;;;;4.78;1.90;;;17.90;38.20;;;;;;6132147;23;20138;-80
2023/02/03 01:06:12;;;;;;;9.20;2.20;;;17.90;38.10;;;;;;6132017;23;20132;-81
2023/02/03 01:08:38;;;;;;;5.57;1.63;;;17.90;38.20;;;;;;6157840;23;20175;-80
2023/02/03 01:11:06;;;;;;;5.82;2.25;;;17.90;38.20;;;;;;6131770;23;20135;-80
2023/02/03 01:13:32;;;;;;;6.45;2.22;;;17.90;38.20;;;;;;6107796;23;20136;-80
2023/02/03 01:15:58;;;;;;;6.13;1.98;;;17.90;38.20;;;;;;6157640;23;20136;-80
2023/02/03 01:18:23;;;;;;;5.85;2.00;;;17.90;38.20;;;;;;6131557;23;20480;-80
2023/02/03 01:20:49;;;;;;;7.47;2.45;;;17.90;38.20;;;;;;6131811;23;20626;-80
2023/02/03 01:23:15;;;;;;;6.57;2.08;;;17.90;38.20;;;;;;6107285;23;20590;-80
2023/02/03 01:25:40;;;;;;;7.60;2.28;;;17.90;38.30;;;;;;6107388;23;20640;-81
2023/02/03 01:28:06;;;;;;;5.18;1.77;;;17.90;38.30;;;;;;6131591;23;20575;-80
2023/02/03 01:30:32;;;;;;;7.68;2.10;;;17.90;38.40;;;;;;6131609;23;20190;-80
2023/02/03 01:32:57;;;;;;;6.65;1.92;;;17.90;38.40;;;;;;6157563;23;20448;-81
2023/02/03 01:35:23;;;;;;;3.92;1.83;;;17.80;38.40;;;;;;6157529;23;20579;-80
2023/02/03 01:37:49;;;;;;;4.72;2.10;;;17.90;38.40;;;;;;6131197;23;20563;-80
2023/02/03 01:40:14;;;;;;;5.35;1.95;;;17.90;38.50;;;;;;6157829;23;20243;-80
2023/02/03 01:42:40;;;;;;;4.47;1.85;;;17.90;38.40;;;;;;6131542;23;20178;-81
2023/02/03 01:45:06;;;;;;;5.97;1.98;;;17.90;38.40;;;;;;6107268;23;20143;-80
2023/02/03 01:47:45;;;;;;;5.95;2.05;;;17.90;38.30;;;;;;6132001;23;20251;-80
2023/02/03 01:50:17;;;;;;;3.92;2.10;;;17.90;38.40;;;;;;6157320;23;20136;-81
2023/02/03 01:52:44;;;;;;;5.75;1.98;;;17.80;38.50;;;;;;6157429;23;20144;-81
2023/02/03 01:55:12;;;;;;;7.32;1.98;;;17.80;38.50;;;;;;6157663;23;20140;-80
2023/02/03 01:57:44;;;;;;;7.53;2.42;;;17.80;38.50;;;;;;6157330;23;20482;-80
2023/02/03 02:00:10;;;;;;;5.55;2.03;;;17.80;38.50;;;;;;6132096;23;20542;-81
2023/02/03 02:02:35;;;;;;;8.20;2.08;;;17.80;38.50;;;;;;6157360;23;20132;-81
2023/02/03 02:05:06;;;;;;;7.07;1.83;;;17.80;38.50;;;;;;6157598;23;20435;-80
2023/02/03 02:07:32;;;;;;;6.65;2.30;;;17.80;38.60;;;;;;6131818;23;20186;-80
2023/02/03 02:09:58;;;;;;;4.82;1.67;;;17.80;38.70;;;;;;6131364;23;20139;-80
2023/02/03 02:12:23;;;;;;;5.68;2.17;;;17.80;38.70;;;;;;6156985;23;20579;-81
2023/02/03 02:14:49;;;;;;;5.45;1.95;;;17.80;38.70;;;;;;6157596;23;20147;-80
2023/02/03 02:17:33;;;;;;;6.90;2.35;;;17.80;38.70;;;;;;6157051;23;20163;-80
2023/02/03 02:20:15;;;;;;;5.20;1.90;;;17.80;38.90;;;;;;6157012;23;20195;-81
2023/02/03 02:23:03;;;;;;;5.43;2.08;;;17.80;38.80;;;;;;6108427;23;20215;-80
2023/02/03 02:25:52;;;;;;;4.47;1.70;;;17.80;38.80;;;;;;6157522;23;20140;-80
2023/02/03 02:28:43;;;;;;;5.07;2.28;;;17.80;38.80;;;;;;6157077;23;20143;-80
2023/02/03 02:31:43;;;;;;;5.95;2.03;;;17.80;38.80;;;;;;6157446;23;20163;-80
2023/02/03 02:34:36;;;;;;;6.45;1.90;;;17.80;38.70;;;;;;6157276;23;20214;-80
2023/02/03 02:37:33;;;;;;;4.78;2.20;;;17.80;39.00;;;;;;6087694;23;20183;-81
2023/02/03 02:40:08;;;;;;;6.35;2.28;;;17.70;38.90;;;;;;6156970;23;20143;-80
2023/02/03 02:42:58;;;;;;;6.75;1.80;;;17.70;38.90;;;;;;6156974;23;20143;-80
2023/02/03 02:45:33;;;;;;;4.32;2.03;;;17.80;39.00;;;;;;6109416;23;20143;-81
2023/02/03 02:48:04;;;;;;;4.65;1.98;;;17.70;39.10;;;;;;6130830;23;20210;-81
2023/02/03 02:50:32;;;;;;;5.80;2.15;;;17.70;39.10;;;;;;6106252;23;20494;-80
2023/02/03 02:52:58;;;;;;;4.32;1.98;;;17.70;39.00;;;;;;6131168;23;20218;-80
2023/02/03 02:55:26;;;;;;;6.00;2.10;;;17.70;38.90;;;;;;6131008;23;20563;-80
2023/02/03 02:57:54;;;;;;;3.95;1.90;;;17.70;39.00;;;;;;6131120;23;20163;-80
2023/02/03 03:00:20;;;;;;;4.57;2.03;;;17.80;39.10;;;;;;6106606;23;20166;-80
2023/02/03 03:02:46;;;;;;;7.45;1.80;;;17.70;39.10;;;;;;6130789;23;20135;-80
2023/02/03 03:05:12;;;;;;;6.75;2.38;;;17.70;39.10;;;;;;6156727;23;20128;-80
2023/02/03 03:07:44;;;;;;;4.72;2.10;;;17.70;39.20;;;;;;6156687;23;20139;-80
2023/02/03 03:10:11;;;;;;;5.55;1.90;;;17.70;39.10;;;;;;6107457;23;20144;-80
2023/02/03 03:12:38;;;;;;;4.90;2.03;;;17.70;39.20;;;;;;6156979;23;20151;-80
2023/02/03 03:15:06;;;;;;;3.33;1.73;;;17.70;39.10;;;;;;6130692;23;20139;-80
2023/02/03 03:17:34;;;;;;;7.15;2.22;;;17.70;39.20;;;;;;6130306;23;20738;-80
2023/02/03 03:20:02;;;;;;;6.03;1.95;;;17.70;39.30;;;;;;6130781;23;20145;-80
2023/02/03 03:22:33;;;;;;;8.02;2.08;;;17.70;39.30;;;;;;6130620;23;20210;-80
2023/02/03 03:25:05;;;;;;;7.25;1.83;;;17.70;39.30;;;;;;6106444;23;20131;-80
2023/02/03 03:27:33;;;;;;;4.93;1.90;;;17.70;39.30;;;;;;6131214;23;20143;-80
2023/02/03 03:30:03;;;;;;;7.13;1.90;;;17.70;39.40;;;;;;6130903;23;20135;-80
2023/02/03 03:32:31;;;;;;;4.88;1.90;;;17.70;39.40;;;;;;6130232;23;20151;-80
2023/02/03 03:34:57;;;;;;;2.88;1.60;;;17.70;39.30;;;;;;6156408;23;20132;-80
2023/02/03 03:37:36;;;;;;;5.32;2.00;;;17.60;39.40;;;;;;6105558;23;20214;-80
2023/02/03 03:40:10;;;;;;;5.22;1.60;;;17.70;39.30;;;;;;6156712;23;20219;-80
2023/02/03 03:42:40;;;;;;;5.13;2.10;;;17.70;39.30;;;;;;6156299;23;20249;-80
2023/02/03 03:45:12;;;;;;;3.50;1.70;;;17.70;39.40;;;;;;6106864;23;20598;-80
2023/02/03 03:47:48;;;;;;;4.20;1.95;;;17.70;39.40;;;;;;6156306;23;20440;-80
2023/02/03 03:50:19;;;;;;;4.50;1.98;;;17.70;39.40;;;;;;6130360;23;20139;-80
2023/02/03 03:52:45;;;;;;;3.55;1.63;;;17.70;39.40;;;;;;6131205;23;20146;-80
2023/02/03 03:55:11;;;;;;;5.05;2.40;;;17.70;39.50;;;;;;6156376;23;20563;-80
2023/02/03 03:57:44;;;;;;;4.60;1.83;;;17.70;39.40;;;;;;6156206;23;20241;-81
2023/02/03 04:00:10;;;;;;;3.42;1.83;;;17.60;39.50;;;;;;6156292;23;20135;-83
2023/02/03 04:02:36;;;;;;;7.13;2.00;;;17.70;39.50;;;;;;6130701;23;20139;-80
2023/02/03 04:05:02;;;;;;;4.35;1.67;;;17.60;39.50;;;;;;6156464;23;20140;-80
2023/02/03 04:07:44;;;;;;;4.95;1.80;;;17.70;39.60;;;;;;6156198;23;20231;-80
2023/02/03 04:10:25;;;;;;;3.50;1.67;;;17.60;39.60;;;;;;6156196;23;20140;-80
2023/02/03 04:12:51;;;;;;;5.63;2.05;;;17.60;39.60;;;;;;6130146;23;20586;-80
2023/02/03 04:15:17;;;;;;;3.88;1.75;;;17.60;39.50;;;;;;6156064;23;20132;-81
2023/02/03 04:17:42;;;;;;;4.50;1.98;;;17.60;39.50;;;;;;6129806;23;20626;-80
2023/02/03 04:20:08;;;;;;;5.65;1.80;;;17.60;39.50;;;;;;6130014;23;20154;-80
2023/02/03 04:22:34;;;;;;;6.03;1.77;;;17.60;39.50;;;;;;6156198;23;20136;-81
2023/02/03 04:25:00;;;;;;;5.03;2.22;;;17.60;39.50;;;;;;6155968;23;20619;-80
2023/02/03 04:27:26;;;;;;;2.85;1.77;;;17.60;39.50;;;;;;6105604;23;20578;-80
2023/02/03 04:29:51;;;;;;;3.05;1.95;;;17.60;39.50;;;;;;6105707;23;20190;-80
2023/02/03 04:32:17;;;;;;;5.07;1.65;;;17.60;39.60;;;;;;6155942;23;20451;-81
2023/02/03 04:34:43;;;;;;;4.68;1.77;;;17.60;39.70;;;;;;6129925;23;20146;-80
2023/02/03 04:37:08;;;;;;;5.22;1.73;;;17.60;39.70;;;;;;6105414;23;20263;-80
2023/02/03 04:39:34;;;;;;;5.82;2.13;;;17.60;39.70;;;;;;6105709;23;20654;-80
2023/02/03 04:42:00;;;;;;;4.32;1.90;;;17.60;39.70;;;;;;6156292;23;20155;-80
2023/02/03 04:44:25;;;;;;;4.13;1.73;;;17.60;39.70;;;;;;6156204;23;20622;-80
2023/02/03 04:46:51;;;;;;;4.63;1.80;;;17.60;39.70;;;;;;6155797;23;20147;-80
2023/02/03 04:49:17;;;;;;;5.60;1.95;;;17.60;39.80;;;;;;6155867;23;20568;-80
2023/02/03 04:51:44;;;;;;;4.50;1.95;;;17.60;39.70;;;;;;6156147;23;20448;-80
2023/02/03 04:54:10;;;;;;;4.82;2.08;;;17.50;39.70;;;;;;6155818;23;20159;-82
2023/02/03 04:56:36;;;;;;;7.97;2.10;;;17.60;39.80;;;;;;6129913;23;20470;-80
2023/02/03 04:59:02;;;;;;;4.63;1.77;;;17.60;39.80;;;;;;6129795;23;20591;-80
2023/02/03 05:01:27;;;;;;;6.20;1.95;;;17.60;39.80;;;;;;6081527;23;20456;-80
2023/02/03 05:03:53;;;;;;;3.83;1.75;;;17.50;39.80;;;;;;6129727;23;20139;-80
2023/02/03 05:06:24;;;;;;;4.05;1.80;;;17.50;39.80;;;;;;6129852;23;20138;-81
2023/02/03 05:08:49;;;;;;;4.93;1.90;;;17.50;39.80;;;;;;6130257;23;20169;-80
2023/02/03 05:11:15;;;;;;;3.53;2.10;;;17.60;39.80;;;;;;6155752;23;20147;-80
2023/02/03 05:13:41;;;;;;;5.30;1.90;;;17.60;39.70;;;;;;6155237;23;20662;-81
2023/02/03 05:16:06;;;;;;;6.32;1.80;;;17.50;39.80;;;;;;6156137;23;20590;-80
2023/02/03 05:18:32;;;;;;;3.85;1.77;;;17.50;39.80;;;;;;6155913;23;20625;-80
2023/02/03 05:20:57;;;;;;;4.63;2.10;;;17.50;40.50;;;;;;6155746;23;20587;-80
2023/02/03 05:23:23;;;;;;;4.88;1.80;;;17.50;39.90;;;;;;6155653;23;20159;-80
2023/02/03 05:25:49;;;;;;;2.65;1.95;;;17.50;39.90;;;;;;6155568;23;20571;-81
2023/02/03 05:28:14;;;;;;;4.95;1.90;;;17.50;40.00;;;;;;6155708;23;20144;-80
2023/02/03 05:30:40;;;;;;;5.35;2.10;;;17.50;40.00;;;;;;6155593;23;20571;-80
2023/02/03 05:33:06;;;;;;;5.07;1.73;;;17.50;39.90;;;;;;6129718;23;20143;-80
2023/02/03 05:35:32;;;;;;;3.22;1.60;;;17.50;39.90;;;;;;6155596;23;20474;-80
2023/02/03 05:37:58;;;;;;;2.67;1.95;;;17.50;39.90;;;;;;6156021;23;20194;-80
2023/02/03 05:43:08;;;;;;;34.20;2.17;;;17.50;40.00;;;;;;6135246;23;20191;-80
2023/02/03 05:45:34;;;;;;;4.32;1.67;;;17.50;40.00;;;;;;6157399;23;20132;-80
2023/02/03 05:48:01;;;;;;;3.40;1.60;;;17.50;40.00;;;;;;6157418;23;20195;-80
2023/02/03 05:50:32;;;;;;;5.18;1.90;;;17.50;40.00;;;;;;6131838;23;20218;-80
2023/02/03 05:52:59;;;;;;;4.18;1.40;;;17.50;40.00;;;;;;6157378;23;20630;-80
2023/02/03 05:55:25;;;;;;;3.28;1.83;;;17.50;40.00;;;;;;6131819;23;20150;-80
2023/02/03 05:57:51;;;;;;;3.25;1.80;;;17.50;40.00;;;;;;6131304;23;20163;-80
2023/02/03 06:00:17;;;;;;;2.70;1.80;;;17.50;40.10;;;;;;6157268;23;20159;-80
2023/02/03 06:02:42;;;;;;;5.18;2.05;;;17.50;40.10;;;;;;6131456;23;20139;-80
2023/02/03 06:05:08;;;;;;;3.80;2.03;;;17.50;40.00;;;;;;6131252;23;20132;-80
2023/02/03 06:07:34;;;;;;;3.65;1.90;;;17.50;40.10;;;;;;6131214;23;20155;-81
2023/02/03 06:09:59;;;;;;;2.72;1.63;;;17.40;40.00;;;;;;6130739;23;20182;-80
2023/02/03 06:12:25;;;;;;;3.67;1.83;;;17.50;40.10;;;;;;6131568;23;20455;-80
2023/02/03 06:14:51;;;;;;;3.95;1.90;;;17.50;40.10;;;;;;6157252;23;20135;-80
2023/02/03 06:17:16;;;;;;;2.72;1.58;;;17.50;40.10;;;;;;6131061;23;20147;-80
2023/02/03 06:19:42;;;;;;;3.30;1.70;;;17.50;40.10;;;;;;6131089;23;20136;-81
2023/02/03 06:22:07;;;;;;;3.10;1.73;;;17.50;40.10;;;;;;6157166;23;20567;-81
2023/02/03 06:24:33;;;;;;;3.42;1.70;;;17.50;40.10;;;;;;6157058;23;20618;-80
2023/02/03 06:26:59;;;;;;;6.47;2.15;;;17.50;40.10;;;;;;6131062;23;20610;-80
2023/02/03 06:29:24;;;;;;;3.90;1.98;;;17.40;40.00;;;;;;6156740;23;20620;-80
2023/02/03 06:31:50;;;;;;;4.13;1.80;;;17.40;40.00;;;;;;6156962;23;20567;-80
2023/02/03 06:34:15;;;;;;;2.83;1.65;;;17.50;40.10;;;;;;6154994;23;20147;-81
2023/02/03 06:36:41;;;;;;;4.57;2.10;;;17.40;40.10;;;;;;6154827;23;20201;-80
2023/02/03 06:39:07;;;;;;;2.60;1.73;;;17.40;40.10;;;;;;6157073;23;20662;-80
2023/02/03 06:41:32;;;;;;;5.85;1.80;;;17.40;40.10;;;;;;6157248;23;20139;-80
2023/02/03 06:43:58;;;;;;;3.92;1.90;;;17.40;40.20;;;;;;6156752;23;20576;-80
2023/02/03 06:46:28;;;;;;;2.88;1.77;;;17.40;40.10;;;;;;6157304;23;20488;-80
2023/02/03 06:48:54;;;;;;;3.33;1.60;;;17.40;40.20;;;;;;6131586;23;20155;-80
2023/02/03 06:51:19;;;;;;;5.43;1.88;;;17.50;40.10;;;;;;6156757;23;20597;-80
2023/02/03 06:53:45;;;;;;;3.38;1.63;;;17.40;40.10;;;;;;6156639;23;20212;-80
2023/02/03 06:56:11;;;;;;;2.25;1.50;;;17.40;40.20;;;;;;6106362;23;20595;-80
2023/02/03 06:58:36;;;;;;;3.63;2.00;;;17.40;40.20;;;;;;6106216;23;20175;-80
2023/02/03 07:01:02;;;;;;;2.13;1.70;;;17.50;40.20;;;;;;6130788;23;20514;-80
2023/02/03 07:03:28;;;;;;;5.18;1.83;;;17.40;40.20;;;;;;6130742;23;20155;-80
2023/02/03 07:05:53;;;;;;;3.45;1.83;;;17.40;40.20;;;;;;6131324;23;20152;-80
2023/02/03 07:08:19;;;;;;;2.17;1.50;;;17.40;40.10;;;;;;6130666;23;20136;-80
2023/02/03 07:10:45;;;;;;;4.78;1.92;;;17.40;40.20;;;;;;6156670;23;20191;-81
2023/02/03 07:13:10;;;;;;;5.82;1.98;;;17.40;40.10;;;;;;6156581;23;20468;-81
2023/02/03 07:15:36;;;;;;;5.90;2.28;;;17.40;40.90;;;;;;6130478;23;20486;-81
2023/02/03 07:18:02;;;;;;;2.85;1.63;;;17.50;40.10;;;;;;6156451;23;20662;-80
2023/02/03 07:20:28;;;;;;;5.43;2.00;;;17.40;40.10;;;;;;6130936;23;20218;-80
2023/02/03 07:22:54;;;;;;;4.07;1.85;;;17.40;40.10;;;;;;6156526;23;20135;-80
2023/02/03 07:25:20;;;;;;;3.28;1.70;;;17.40;40.10;;;;;;6130428;23;20191;-79
2023/02/03 07:27:46;;;;;;;5.35;1.90;;;17.40;40.10;;;;;;6156444;23;20139;-80
2023/02/03 07:30:12;;;;;;;3.92;1.67;;;17.50;40.10;;;;;;6156528;23;20470;-79
2023/02/03 07:32:38;;;;;;;7.45;1.80;;;17.50;39.90;;;;;;6156420;23;20571;-80
2023/02/03 07:35:03;;;;;;;4.65;1.88;;;17.50;40.00;;;;;;6156447;23;20273;-80
2023/02/03 07:37:29;;;;;;;4.53;1.70;;;17.50;39.80;;;;;;6156044;23;20692;-79
2023/02/03 07:39:55;;;;;;;3.35;1.67;;;17.60;39.80;;;;;;6130112;23;20585;-79
2023/02/03 07:42:20;;;;;;;2.97;1.60;;;17.60;39.50;;;;;;6130042;23;20602;-80
2023/02/03 07:44:46;;;;;;;4.32;1.88;;;17.60;39.50;;;;;;6130505;23;20188;-80
2023/02/03 07:47:12;;;;;;;4.50;1.80;;;17.70;40.10;;;;;;6156225;23;20163;-79
2023/02/03 07:49:37;;;;;;;4.55;1.73;;;17.70;39.40;;;;;;6156293;23;20512;-80
2023/02/03 07:52:03;;;;;;;1.85;1.50;;;17.80;39.30;;;;;;6130114;23;20147;-80
2023/02/03 07:54:29;;;;;;;3.15;1.98;;;17.80;39.20;;;;;;6156313;23;20528;-80
2023/02/03 07:56:54;;;;;;;4.20;1.88;;;17.80;39.10;;;;;;6156126;23;20148;-80
2023/02/03 07:59:20;;;;;;;2.25;1.60;;;17.80;39.10;;;;;;6130068;23;20163;-80
2023/02/03 08:01:46;;;;;;;2.03;1.63;;;17.80;39.00;;;;;;6130065;23;20162;-80
2023/02/03 08:04:15;;;;;;;2.88;1.55;;;17.80;38.90;;;;;;6156130;23;20328;-80
2023/02/03 08:06:42;;;;;;;2.75;1.60;;;17.80;38.90;;;;;;6156457;23;20464;-80
2023/02/03 08:09:07;;;;;;;2.92;1.77;;;17.80;38.90;;;;;;6130205;23;20202;-80
2023/02/03 08:11:33;;;;;;;3.28;1.65;;;17.90;38.90;;;;;;6105594;23;20598;-80
2023/02/03 08:13:59;;;;;;;3.75;1.63;;;17.90;39.10;;;;;;6130150;23;20144;-80
2023/02/03 08:16:24;;;;;;;2.33;1.30;;;17.90;39.10;;;;;;6130307;23;20143;-80
2023/02/03 08:18:50;;;;;;;3.50;1.73;;;17.80;39.00;;;;;;6156392;23;20238;-80
2023/02/03 08:21:16;;;;;;;2.65;1.45;;;17.80;39.00;;;;;;6155989;23;20210;-80
2023/02/03 08:23:41;;;;;;;2.53;1.77;;;17.90;39.10;;;;;;6130247;23;20195;-80
2023/02/03 08:26:07;;;;;;;2.22;1.52;;;17.90;39.10;;;;;;6130445;23;20443;-80
2023/02/03 08:28:33;;;;;;;2.88;1.45;;;17.90;38.90;;;;;;6156072;23;20475;-80
2023/02/03 08:30:58;;;;;;;5.28;1.60;;;17.90;38.90;;;;;;6129820;23;20599;-80
2023/02/03 08:33:24;;;;;;;4.35;1.80;;;17.90;38.90;;;;;;6156205;23;20183;-80
2023/02/03 08:35:50;;;;;;;2.55;1.52;;;17.90;38.70;;;;;;6130294;23;20571;-80
2023/02/03 08:38:16;;;;;;;1.58;1.48;;;18.00;38.70;;;;;;6156445;23;20205;-80
2023/02/03 08:40:41;;;;;;;3.30;1.70;;;18.00;38.50;;;;;;6156027;23;20572;-80
2023/02/03 08:43:07;;;;;;;5.63;1.58;;;18.00;38.50;;;;;;6155883;23;20643;-80
2023/02/03 08:45:33;;;;;;;3.78;1.58;;;18.00;38.70;;;;;;6130280;23;20186;-80
2023/02/03 08:47:58;;;;;;;3.92;1.70;;;18.00;38.70;;;;;;6129759;23;20524;-80
2023/02/03 08:50:24;;;;;;;2.25;1.63;;;18.00;38.70;;;;;;6129356;23;20183;-80
2023/02/03 08:52:50;;;;;;;6.63;1.77;;;18.00;38.60;;;;;;6129953;23;20207;-80
2023/02/03 08:55:15;;;;;;;23.30;2.33;;;18.00;38.80;;;;;;6156492;23;20136;-80
2023/02/03 08:57:41;;;;;;;14.35;2.88;;;17.90;38.90;;;;;;6129497;23;20167;-80
2023/02/03 09:00:08;;;;;;;17.20;2.45;;;18.00;39.10;;;;;;6129738;23;20164;-80
2023/02/03 09:02:33;;;;;;;14.05;2.40;;;18.00;38.90;;;;;;6105317;23;20276;-79
2023/02/03 09:04:59;;;;;;;17.27;2.53;;;18.00;39.00;;;;;;6155842;23;20131;-80
2023/02/03 09:07:25;;;;;;;19.98;3.00;;;18.00;38.90;;;;;;6129598;23;20222;-80
2023/02/03 09:09:50;;;;;;;11.77;2.25;;;18.00;39.10;;;;;;6156701;23;20150;-80
2023/02/03 09:12:16;;;;;;;19.30;2.55;;;18.00;39.10;;;;;;6128974;23;20214;-79
2023/02/03 09:14:42;;;;;;;20.45;2.80;;;18.00;38.90;;;;;;6156182;23;20139;-80
2023/02/03 09:17:08;;;;;;;14.95;2.50;;;18.00;38.90;;;;;;6106952;23;20143;-80
2023/02/03 09:19:34;;;;;;;7.63;1.92;;;18.00;38.80;;;;;;6157500;23;20586;-80
2023/02/03 09:22:00;;;;;;;17.40;2.65;;;18.10;38.60;;;;;;6157152;23;20132;-80
2023/02/03 09:24:25;;;;;;;13.70;2.22;;;18.10;38.90;;;;;;6131265;23;20527;-80
2023/02/03 09:26:51;;;;;;;11.95;2.10;;;18.10;38.90;;;;;;6157585;23;20128;-80
2023/02/03 09:29:17;;;;;;;11.60;2.00;;;18.10;39.00;;;;;;6131907;23;20164;-80
2023/02/03 09:31:42;;;;;;;12.90;2.50;;;18.10;38.80;;;;;;6131370;23;20143;-80
2023/02/03 09:34:08;;;;;;;7.38;1.83;;;18.10;38.90;;;;;;6156032;23;20140;-80
2023/02/03 09:36:34;;;;;;;11.15;2.28;;;18.10;38.70;;;;;;6157087;23;20135;-80
2023/02/03 09:38:59;;;;;;;8.77;1.88;;;18.20;38.60;;;;;;6131494;23;20510;-80
2023/02/03 09:42:02;;;;;;;13.02;2.33;;;18.20;38.60;;;;;;6131942;23;20143;-80
2023/02/03 09:44:40;;;;;;;10.88;2.22;;;18.30;38.40;;;;;;6135695;23;20147;-80
2023/02/03 09:47:13;;;;;;;4.97;1.90;;;18.30;38.30;;;;;;6157336;23;20139;-80
2023/02/03 09:49:46;;;;;;;7.78;1.92;;;18.30;38.20;;;;;;6132981;23;20494;-80
2023/02/03 09:52:16;;;;;;;16.02;2.08;;;18.40;38.00;;;;;;6133385;23;20147;-80
2023/02/03 09:54:54;;;;;;;8.82;1.90;;;18.40;38.50;;;;;;6107334;23;20171;-80
2023/02/03 09:57:24;;;;;;;5.50;1.85;;;18.30;38.50;;;;;;6107254;23;20443;-80
2023/02/03 09:59:50;;;;;;;7.10;1.67;;;18.30;38.30;;;;;;6131036;23;20147;-80
2023/02/03 10:02:31;;;;;;;7.63;1.77;;;18.40;38.30;;;;;;6106936;23;20151;-79
2023/02/03 10:05:00;;;;;;;7.80;1.83;;;18.40;38.30;;;;;;6157192;23;20466;-80
2023/02/03 10:07:47;;;;;;;3.42;1.42;;;18.50;38.40;;;;;;6083305;23;20155;-80
2023/02/03 10:10:37;;;;;;;8.27;1.60;;;18.50;38.30;;;;;;6157297;23;20132;-80
2023/02/03 10:13:25;;;;;;;2.58;1.67;;;18.40;38.10;;;;;;6135634;23;20591;-79
2023/02/03 10:16:21;;;;;;;10.98;1.80;;;18.50;38.30;;;;;;6157554;23;20132;-80
2023/02/03 10:18:49;;;;;;;8.25;1.48;;;18.50;38.20;;;;;;6157507;23;20262;-80
2023/02/03 10:21:20;;;;;;;4.78;1.30;;;18.50;38.30;;;;;;6131789;23;20132;-80
2023/02/03 10:23:46;;;;;;;7.10;2.40;;;18.50;38.10;;;;;;6157074;23;20663;-80
2023/02/03 10:26:20;;;;;;;4.15;1.63;;;18.50;38.30;;;;;;6157061;23;20156;-80
2023/02/03 10:28:54;;;;;;;3.40;1.40;;;18.40;38.40;;;;;;6157032;23;20668;-82
2023/02/03 10:31:21;;;;;;;5.47;1.80;;;18.40;38.50;;;;;;6157294;23;20467;-80
2023/02/03 10:33:48;;;;;;;3.58;1.60;;;18.40;38.50;;;;;;6157074;23;20210;-80
2023/02/03 10:36:31;;;;;;;5.20;1.33;;;18.40;38.60;;;;;;6131244;23;20136;-80
2023/02/03 10:39:09;;;;;;;4.43;1.05;;;18.40;38.60;;;;;;6130963;23;20171;-80
2023/02/03 10:41:35;;;;;;;5.00;1.20;;;18.40;38.60;;;;;;6157255;23;20146;-80
2023/02/03 10:44:02;;;;;;;4.30;1.60;;;18.40;38.50;;;;;;6156906;23;20136;-80
2023/02/03 10:46:31;;;;;;;6.32;1.58;;;18.40;38.50;;;;;;6131331;23;20144;-80
2023/02/03 10:48:56;;;;;;;2.95;1.60;;;18.40;38.40;;;;;;6130823;23;20144;-80
2023/02/03 10:51:25;;;;;;;3.85;1.23;;;18.50;38.40;;;;;;6106328;23;20478;-80
2023/02/03 10:53:52;;;;;;;3.85;1.23;;;18.50;38.40;;;;;;6107609;23;20202;-80
2023/02/03 10:56:28;;;;;;;4.70;1.55;;;18.50;38.50;;;;;;6083071;23;20155;-80
2023/02/03 10:58:57;;;;;;;4.55;1.10;;;18.40;38.60;;;;;;6131289;23;20160;-80
2023/02/03 11:01:25;;;;;;;4.60;1.40;;;18.40;38.50;;;;;;6131937;23;20459;-80
2023/02/03 11:03:58;;;;;;;4.60;1.25;;;18.50;38.40;;;;;;6131460;23;20136;-80
2023/02/03 11:06:24;;;;;;;2.75;1.33;;;18.40;38.20;;;;;;6084284;23;20238;-80
2023/02/03 11:08:50;;;;;;;2.40;1.13;;;18.50;38.20;;;;;;6130997;23;20182;-80
2023/02/03 11:11:26;;;;;;;4.65;1.45;;;18.60;38.30;;;;;;6130853;23;20135;-80
2023/02/03 11:13:53;;;;;;;2.95;1.50;;;18.50;38.30;;;;;;6131309;23;20163;-80
2023/02/03 11:16:19;;;;;;;3.95;1.02;;;18.50;38.30;;;;;;6156716;23;20641;-80
2023/02/03 11:19:02;;;;;;;2.78;1.10;;;18.50;38.50;;;;;;6156200;23;20186;-80
2023/02/03 11:21:30;;;;;;;5.03;1.30;;;18.40;38.60;;;;;;6130524;23;20131;-80
2023/02/03 11:24:19;;;;;;;3.72;1.27;;;18.40;38.70;;;;;;6106819;23;20212;-80
2023/02/03 11:26:50;;;;;;;1.70;1.17;;;18.40;38.70;;;;;;6111114;23;20128;-80
2023/02/03 11:29:27;;;;;;;1.58;1.13;;;18.40;38.80;;;;;;6130594;23;20135;-80
2023/02/03 11:31:57;;;;;;;3.33;1.20;;;18.40;38.70;;;;;;6085264;23;20335;-81
2023/02/03 11:34:38;;;;;;;2.13;1.00;;;18.50;38.70;;;;;;6067366;23;20160;-80
2023/02/03 11:37:26;;;;;;;3.38;1.00;;;18.50;38.80;;;;;;6018921;23;20193;-79
2023/02/03 11:39:55;;;;;;;2.10;1.10;;;18.50;38.70;;;;;;6042668;23;20146;-80
2023/02/03 11:42:22;;;;;;;1.70;1.20;;;18.50;38.50;;;;;;6042191;23;20164;-80
2023/02/03 11:44:48;;;;;;;4.38;1.20;;;18.50;38.60;;;;;;6042569;23;20641;-80
2023/02/03 11:47:15;;;;;;;1.98;1.13;;;18.50;38.60;;;;;;6041917;23;20161;-80
2023/02/03 11:50:00;;;;;;;2.40;1.00;;;18.50;38.70;;;;;;6042601;23;20154;-80
2023/02/03 11:52:40;;;;;;;1.35;1.10;;;18.50;38.80;;;;;;6042725;23;20164;-80
2023/02/03 11:55:31;;;;;;;5.50;1.10;;;18.50;38.70;;;;;;6044118;23;20157;-80
2023/02/03 11:58:31;;;;;;;5.40;0.88;;;18.50;38.70;;;;;;6066034;23;20177;-80
2023/02/03 12:01:12;;;;;;;8.18;1.35;;;18.60;38.70;;;;;;6066685;23;20204;-80
2023/02/03 12:03:50;;;;;;;7.75;1.42;;;18.60;38.80;;;;;;6042304;23;20149;-81
2023/02/03 12:06:31;;;;;;;10.80;1.60;;;18.50;38.90;;;;;;6123134;23;20158;-80
2023/02/03 12:09:21;;;;;;;4.18;1.25;;;18.50;38.90;;;;;;6156219;23;20147;-80
2023/02/03 12:12:11;;;;;;;9.68;1.20;;;18.50;38.80;;;;;;6156272;23;20182;-80
2023/02/03 12:15:02;;;;;;;5.63;1.40;;;18.50;38.90;;;;;;6132456;23;20147;-80
2023/02/03 12:18:01;;;;;;;3.08;1.10;;;18.50;38.90;;;;;;6155691;23;20147;-79
2023/02/03 12:20:52;;;;;;;14.23;1.60;;;18.60;38.90;;;;;;6155774;23;20146;-80
2023/02/03 12:23:28;;;;;;;7.70;1.33;;;18.60;38.70;;;;;;6110555;23;20241;-80
2023/02/03 12:26:24;;;;;;;11.27;1.20;;;18.60;38.70;;;;;;6128978;23;20155;-81
2023/02/03 12:29:11;;;;;;;15.30;2.00;;;18.70;38.90;;;;;;6133689;23;20151;-80
2023/02/03 12:31:51;;;;;;;7.90;1.23;;;18.70;39.00;;;;;;6131798;23;20534;-79
2023/02/03 12:34:34;;;;;;;7.93;1.40;;;18.60;38.90;;;;;;6156068;23;20167;-81
2023/02/03 12:37:09;;;;;;;13.35;2.00;;;18.70;39.10;;;;;;6131774;23;20198;-81
2023/02/03 12:39:47;;;;;;;11.27;1.67;;;18.70;39.00;;;;;;6129410;23;20554;-80
2023/02/03 12:42:34;;;;;;;8.82;1.50;;;18.70;39.00;;;;;;6131866;23;20214;-81
2023/02/03 12:45:05;;;;;;;13.25;1.20;;;18.70;39.00;;;;;;6155800;23;20162;-80
2023/02/03 12:47:36;;;;;;;10.38;1.20;;;18.80;39.10;;;;;;6155690;23;20167;-80
2023/02/03 12:50:31;;;;;;;6.28;1.10;;;18.80;39.00;;;;;;6155808;23;20227;-79
2023/02/03 12:53:11;;;;;;;8.52;1.10;;;18.80;38.70;;;;;;6132591;23;20140;-80
2023/02/03 12:55:40;;;;;;;7.60;1.30;;;18.80;38.80;;;;;;6155738;23;20140;-80
2023/02/03 12:58:10;;;;;;;8.18;1.23;;;18.90;38.70;;;;;;6105774;23;20644;-80
2023/02/03 13:00:46;;;;;;;10.30;1.10;;;18.90;38.90;;;;;;6156110;23;20146;-80